createdAt,value
2022-09-30T00:00:58.182Z,10.70
2022-09-30T00:03:25.068Z,10.70
2022-09-30T00:06:07.799Z,10.70
2022-09-30T00:08:36.239Z,10.70
2022-09-30T00:11:08.921Z,10.70
2022-09-30T00:13:38.059Z,10.70
2022-09-30T00:16:05.195Z,10.70
2022-09-30T00:18:32.447Z,10.70
2022-09-30T00:20:59.888Z,10.70
2022-09-30T00:23:26.545Z,10.70
2022-09-30T00:26:02.259Z,10.70
2022-09-30T00:28:31.091Z,10.70
2022-09-30T00:31:02.295Z,10.70
2022-09-30T00:33:29.354Z,10.70
2022-09-30T00:35:56.166Z,10.60
2022-09-30T00:38:23.212Z,10.60
2022-09-30T00:40:51.489Z,10.60
2022-09-30T00:43:21.859Z,10.60
2022-09-30T00:45:57.923Z,10.60
2022-09-30T00:48:35.372Z,10.60
2022-09-30T00:51:04.366Z,10.60
2022-09-30T00:53:34.983Z,10.60
2022-09-30T00:56:09.628Z,10.50
2022-09-30T00:59:01.680Z,10.50
2022-09-30T01:01:28.587Z,10.50
2022-09-30T01:04:00.389Z,10.50
2022-09-30T01:06:27.716Z,10.50
2022-09-30T01:08:55.233Z,10.50
2022-09-30T01:11:21.857Z,10.50
2022-09-30T01:13:53.160Z,10.40
2022-09-30T01:16:37.503Z,10.30
2022-09-30T01:19:23.317Z,10.10
2022-09-30T01:21:56.053Z,9.80
2022-09-30T01:24:34.648Z,9.70
2022-09-30T01:27:30.538Z,9.60
2022-09-30T01:30:03.272Z,9.60
2022-09-30T01:33:00.750Z,9.70
2022-09-30T01:35:44.546Z,9.80
2022-09-30T01:38:26.013Z,9.80
2022-09-30T01:41:34.192Z,9.90
2022-09-30T01:44:11.182Z,9.90
2022-09-30T01:46:44.233Z,10.00
2022-09-30T01:49:20.505Z,10.00
2022-09-30T01:52:04.081Z,10.00
2022-09-30T01:54:43.412Z,10.10
2022-09-30T01:57:18.044Z,10.10
2022-09-30T01:59:57.357Z,10.10
2022-09-30T02:02:28.088Z,10.10
2022-09-30T02:05:23.636Z,10.10
2022-09-30T02:08:00.400Z,10.10
2022-09-30T02:10:35.370Z,9.80
2022-09-30T02:13:18.063Z,9.70
2022-09-30T02:15:59.395Z,9.70
2022-09-30T02:18:35.406Z,9.80
2022-09-30T02:21:04.716Z,9.80
2022-09-30T02:23:35.343Z,9.90
2022-09-30T02:26:08.954Z,9.90
2022-09-30T02:28:39.409Z,9.90
2022-09-30T02:31:08.510Z,9.90
2022-09-30T02:33:46.806Z,10.00
2022-09-30T02:36:23.523Z,10.00
2022-09-30T02:39:01.479Z,10.00
2022-09-30T02:41:31.998Z,10.00
2022-09-30T02:44:02.335Z,10.10
2022-09-30T02:47:02.320Z,10.10
2022-09-30T02:49:49.537Z,10.10
2022-09-30T02:52:42.113Z,10.10
2022-09-30T02:55:49.558Z,10.10
2022-09-30T02:58:19.108Z,10.10
2022-09-30T03:00:45.875Z,10.10
2022-09-30T03:03:20.872Z,10.00
2022-09-30T03:05:50.055Z,10.00
2022-09-30T03:08:17.323Z,9.90
2022-09-30T03:10:46.911Z,9.80
2022-09-30T03:13:19.358Z,9.80
2022-09-30T03:16:02.267Z,9.80
2022-09-30T03:18:36.511Z,9.80
2022-09-30T03:21:16.284Z,9.80
2022-09-30T03:23:52.549Z,9.80
2022-09-30T03:26:45.178Z,9.80
2022-09-30T03:29:49.055Z,9.80
2022-09-30T03:32:49.481Z,9.80
2022-09-30T03:35:25.800Z,9.80
2022-09-30T03:38:17.319Z,9.80
2022-09-30T03:40:51.580Z,9.80
2022-09-30T03:43:29.327Z,9.80
2022-09-30T03:46:13.354Z,9.80
2022-09-30T03:48:41.111Z,9.70
2022-09-30T03:51:09.048Z,9.70
2022-09-30T03:53:43.215Z,9.50
2022-09-30T03:56:09.877Z,9.50
2022-09-30T03:58:40.978Z,9.50
2022-09-30T04:01:07.629Z,9.50
2022-09-30T04:03:35.437Z,9.40
2022-09-30T04:06:03.048Z,9.50
2022-09-30T04:08:33.617Z,9.40
2022-09-30T04:11:00.525Z,9.30
2022-09-30T04:13:27.227Z,9.30
2022-09-30T04:15:55.051Z,9.40
2022-09-30T04:18:21.669Z,9.40
2022-09-30T04:20:48.267Z,9.50
2022-09-30T04:23:14.950Z,9.60
2022-09-30T04:25:41.705Z,9.60
2022-09-30T04:28:08.311Z,9.60
2022-09-30T04:30:34.877Z,9.70
2022-09-30T04:33:01.437Z,9.70
2022-09-30T04:35:29.928Z,9.70
2022-09-30T04:37:56.499Z,9.70
2022-09-30T04:40:23.080Z,9.80
2022-09-30T04:42:49.911Z,9.80
2022-09-30T04:45:16.544Z,9.80
2022-09-30T04:47:45.142Z,9.80
2022-09-30T04:50:11.984Z,9.80
2022-09-30T04:52:43.016Z,9.80
2022-09-30T04:55:10.407Z,9.80
2022-09-30T04:57:37.765Z,9.80
2022-09-30T05:00:05.510Z,9.80
2022-09-30T05:02:32.239Z,9.80
2022-09-30T05:04:58.799Z,9.80
2022-09-30T05:07:25.378Z,9.80
2022-09-30T05:09:53.194Z,9.80
2022-09-30T05:12:19.775Z,9.80
2022-09-30T05:14:46.365Z,9.80
2022-09-30T05:17:13.161Z,9.80
2022-09-30T05:19:39.806Z,9.80
2022-09-30T05:22:06.364Z,9.80
2022-09-30T05:24:34.053Z,9.80
2022-09-30T05:27:01.879Z,9.80
2022-09-30T05:29:28.446Z,9.80
2022-09-30T05:31:55.256Z,9.80
2022-09-30T05:34:22.724Z,9.80
2022-09-30T05:36:49.285Z,9.80
2022-09-30T05:39:16.444Z,9.80
2022-09-30T05:41:43.069Z,9.80
2022-09-30T05:44:10.181Z,9.80
2022-09-30T05:46:36.937Z,9.80
2022-09-30T05:49:03.581Z,9.80
2022-09-30T05:51:31.073Z,9.70
2022-09-30T05:53:57.620Z,9.70
2022-09-30T05:56:24.212Z,9.70
2022-09-30T05:58:50.968Z,9.60
2022-09-30T06:01:17.656Z,9.50
2022-09-30T06:03:46.606Z,9.30
2022-09-30T06:06:14.769Z,9.30
2022-09-30T06:08:43.411Z,9.00
2022-09-30T06:11:12.364Z,8.90
2022-09-30T06:13:40.663Z,8.90
2022-09-30T06:16:08.456Z,8.70
2022-09-30T06:18:35.873Z,8.70
2022-09-30T06:21:04.734Z,8.70
2022-09-30T06:23:34.926Z,8.80
2022-09-30T06:26:02.660Z,8.80
2022-09-30T06:28:29.212Z,8.90
2022-09-30T06:30:55.892Z,9.00
2022-09-30T06:33:22.515Z,9.00
2022-09-30T06:35:50.582Z,9.10
2022-09-30T06:38:17.779Z,9.20
2022-09-30T06:40:49.635Z,9.30
2022-09-30T06:43:17.636Z,9.30
2022-09-30T06:45:46.483Z,9.40
2022-09-30T06:48:13.994Z,9.50
2022-09-30T06:50:42.388Z,9.50
2022-09-30T06:53:13.485Z,9.50
2022-09-30T06:55:40.522Z,9.60
2022-09-30T06:58:11.139Z,9.60
2022-09-30T07:00:38.185Z,9.70
2022-09-30T07:03:09.645Z,9.70
2022-09-30T07:05:37.230Z,9.60
2022-09-30T07:08:04.141Z,9.60
2022-09-30T07:10:30.732Z,9.50
2022-09-30T07:12:57.338Z,9.50
2022-09-30T07:15:24.010Z,9.30
2022-09-30T07:17:54.806Z,9.20
2022-09-30T07:20:21.377Z,9.30
2022-09-30T07:22:48.089Z,9.30
2022-09-30T07:25:15.685Z,9.30
2022-09-30T07:27:42.318Z,9.40
2022-09-30T07:30:16.059Z,9.50
2022-09-30T07:32:43.295Z,9.50
2022-09-30T07:35:09.903Z,9.60
2022-09-30T07:37:36.548Z,9.60
2022-09-30T07:40:07.824Z,9.70
2022-09-30T07:42:39.254Z,9.70
2022-09-30T07:45:06.377Z,9.80
2022-09-30T07:47:33.021Z,9.80
2022-09-30T07:50:00.426Z,9.80
2022-09-30T07:52:27.154Z,9.80
2022-09-30T07:54:53.776Z,9.90
2022-09-30T07:57:21.618Z,9.90
2022-09-30T07:59:48.306Z,9.90
2022-09-30T08:02:17.457Z,9.90
2022-09-30T08:04:44.950Z,10.00
2022-09-30T08:07:13.383Z,10.00
2022-09-30T08:09:40.150Z,10.00
2022-09-30T08:12:07.208Z,10.00
2022-09-30T08:14:33.992Z,10.00
2022-09-30T08:17:01.108Z,10.10
2022-09-30T08:19:29.666Z,10.10
2022-09-30T08:21:56.848Z,10.10
2022-09-30T08:24:24.875Z,10.10
2022-09-30T08:26:52.154Z,10.20
2022-09-30T08:29:35.712Z,10.20
2022-09-30T08:32:06.134Z,10.20
2022-09-30T08:34:35.310Z,10.20
2022-09-30T08:37:06.284Z,10.30
2022-09-30T08:39:35.754Z,10.30
2022-09-30T08:42:08.963Z,10.30
2022-09-30T08:44:48.923Z,10.40
2022-09-30T08:47:43.552Z,10.40
2022-09-30T08:50:30.365Z,10.40
2022-09-30T08:53:25.195Z,10.50
2022-09-30T08:55:54.384Z,10.50
2022-09-30T08:58:29.629Z,10.50
2022-09-30T09:01:26.205Z,10.50
2022-09-30T09:03:53.989Z,10.60
2022-09-30T09:06:27.140Z,10.70
2022-09-30T09:09:11.901Z,10.70
2022-09-30T09:12:04.875Z,10.70
2022-09-30T09:14:40.504Z,10.70
2022-09-30T09:17:25.120Z,10.70
2022-09-30T09:20:17.240Z,10.70
2022-09-30T09:22:50.920Z,10.60
2022-09-30T09:25:29.289Z,10.70
2022-09-30T09:28:02.484Z,10.70
2022-09-30T09:30:43.525Z,10.80
2022-09-30T09:33:23.029Z,10.80
2022-09-30T09:36:21.592Z,10.80
2022-09-30T09:39:03.182Z,10.90
2022-09-30T09:41:52.203Z,10.90
2022-09-30T09:44:43.896Z,10.90
2022-09-30T09:47:17.166Z,11.00
2022-09-30T09:49:44.624Z,10.90
2022-09-30T09:52:12.349Z,10.80
2022-09-30T09:54:49.509Z,10.80
2022-09-30T09:57:18.324Z,10.80
2022-09-30T10:00:21.813Z,10.90
2022-09-30T10:03:13.394Z,10.90
2022-09-30T10:05:40.179Z,11.10
2022-09-30T10:08:14.946Z,11.10
2022-09-30T10:10:52.958Z,11.20
2022-09-30T10:13:26.598Z,11.30
2022-09-30T10:15:58.640Z,11.30
2022-09-30T10:18:34.130Z,11.40
2022-09-30T10:21:06.748Z,11.40
2022-09-30T10:23:39.250Z,11.50
2022-09-30T10:29:01.573Z,11.60
2022-09-30T10:31:31.044Z,11.70
2022-09-30T10:34:09.239Z,11.70
2022-09-30T10:36:38.989Z,11.80
2022-09-30T10:39:34.488Z,11.80
2022-09-30T10:42:14.909Z,11.80
2022-09-30T10:44:48.036Z,11.80
2022-09-30T10:47:18.435Z,11.90
2022-09-30T10:49:52.892Z,11.90
2022-09-30T10:52:23.992Z,11.90
2022-09-30T10:54:59.214Z,12.00
2022-09-30T10:57:33.316Z,12.00
2022-09-30T11:00:01.994Z,12.00
2022-09-30T11:02:54.988Z,12.00
2022-09-30T11:05:31.321Z,12.10
2022-09-30T11:08:19.684Z,12.20
2022-09-30T11:11:14.564Z,12.30
2022-09-30T11:13:59.523Z,12.40
2022-09-30T11:16:49.404Z,12.50
2022-09-30T11:19:23.882Z,12.60
2022-09-30T11:22:13.176Z,12.70
2022-09-30T11:24:43.633Z,12.90
2022-09-30T11:27:19.120Z,13.00
2022-09-30T11:30:00.785Z,13.00
2022-09-30T11:32:47.589Z,13.00
2022-09-30T11:35:32.772Z,13.00
2022-09-30T11:38:27.143Z,13.00
2022-09-30T11:41:18.801Z,13.00
2022-09-30T11:44:09.610Z,13.00
2022-09-30T11:46:44.076Z,13.10
2022-09-30T11:49:32.578Z,13.10
2022-09-30T11:52:24.231Z,13.10
2022-09-30T11:55:13.093Z,13.20
2022-09-30T11:57:44.666Z,13.30
2022-09-30T12:00:19.419Z,13.30
2022-09-30T12:02:51.330Z,13.30
2022-09-30T12:05:35.637Z,13.30
2022-09-30T12:08:24.188Z,13.30
2022-09-30T12:11:12.009Z,13.30
2022-09-30T12:13:47.672Z,13.30
2022-09-30T12:16:19.955Z,13.30
2022-09-30T12:18:56.216Z,13.30
2022-09-30T12:21:40.652Z,13.30
2022-09-30T12:24:11.632Z,13.40
2022-09-30T12:26:40.282Z,13.40
2022-09-30T12:29:41.183Z,13.50
2022-09-30T12:32:22.352Z,13.50
2022-09-30T12:35:04.222Z,13.50
2022-09-30T12:37:42.537Z,13.50
2022-09-30T12:40:52.324Z,13.60
2022-09-30T12:43:41.164Z,13.60
2022-09-30T12:46:26.830Z,13.70
2022-09-30T12:49:01.877Z,13.80
2022-09-30T12:51:34.537Z,13.80
2022-09-30T12:54:16.207Z,13.80
2022-09-30T12:56:45.008Z,13.80
2022-09-30T12:59:13.760Z,13.80
2022-09-30T13:01:42.243Z,13.90
2022-09-30T13:04:08.870Z,13.90
2022-09-30T13:06:47.945Z,13.90
2022-09-30T13:09:17.340Z,13.90
2022-09-30T13:11:48.347Z,14.00
2022-09-30T13:14:25.675Z,14.10
2022-09-30T13:17:07.844Z,14.20
2022-09-30T13:19:49.460Z,14.20
2022-09-30T13:22:19.426Z,14.20
2022-09-30T13:24:58.203Z,14.20
2022-09-30T13:27:36.893Z,14.20
2022-09-30T13:30:27.409Z,14.20
2022-09-30T13:33:02.464Z,14.40
2022-09-30T13:35:44.205Z,14.60
2022-09-30T13:38:20.623Z,14.70
2022-09-30T13:41:17.556Z,14.60
2022-09-30T13:44:08.392Z,14.70
2022-09-30T13:46:43.384Z,14.80
2022-09-30T13:49:24.847Z,15.20
2022-09-30T13:51:54.833Z,15.40
2022-09-30T13:54:36.843Z,15.50
2022-09-30T13:57:06.237Z,15.50
2022-09-30T13:59:47.837Z,15.40
2022-09-30T14:02:29.435Z,15.40
2022-09-30T14:05:37.208Z,15.40
2022-09-30T14:08:19.043Z,15.40
2022-09-30T14:10:57.092Z,15.40
2022-09-30T14:13:39.047Z,15.50
2022-09-30T14:16:18.477Z,15.60
2022-09-30T14:18:53.826Z,15.80
2022-09-30T14:21:41.890Z,15.90
2022-09-30T14:24:17.176Z,16.10
2022-09-30T14:27:17.770Z,16.30
2022-09-30T14:30:05.620Z,16.50
2022-09-30T14:32:57.772Z,16.90
2022-09-30T14:35:28.507Z,17.10
2022-09-30T14:37:58.283Z,17.20
2022-09-30T14:40:31.247Z,17.30
2022-09-30T14:43:04.939Z,17.20
2022-09-30T14:45:37.680Z,17.30
2022-09-30T14:48:33.230Z,17.30
2022-09-30T14:51:12.652Z,17.50
2022-09-30T14:53:56.963Z,17.50
2022-09-30T14:56:30.832Z,17.60
2022-09-30T14:58:59.749Z,17.80
2022-09-30T15:01:36.355Z,18.30
2022-09-30T15:04:13.407Z,18.30
2022-09-30T15:06:45.333Z,18.20
2022-09-30T15:09:20.537Z,18.10
2022-09-30T15:11:48.153Z,18.20
2022-09-30T15:14:23.687Z,18.10
2022-09-30T15:17:05.801Z,18.10
2022-09-30T15:19:34.899Z,17.90
2022-09-30T15:22:09.446Z,17.70
2022-09-30T15:24:37.317Z,17.90
2022-09-30T15:27:05.007Z,18.10
2022-09-30T15:29:32.025Z,18.10
2022-09-30T15:32:20.883Z,18.20
2022-09-30T15:34:47.668Z,18.30
2022-09-30T15:37:22.888Z,18.50
2022-09-30T15:40:09.290Z,18.70
2022-09-30T15:42:46.219Z,18.70
2022-09-30T15:45:35.380Z,18.80
2022-09-30T15:48:25.620Z,18.90
2022-09-30T15:51:01.284Z,19.10
2022-09-30T15:53:33.659Z,19.20
2022-09-30T15:56:18.175Z,19.10
2022-09-30T15:59:04.992Z,18.90
2022-09-30T16:01:48.826Z,18.50
2022-09-30T16:04:15.582Z,18.70
2022-09-30T16:06:45.058Z,18.80
2022-09-30T16:09:17.917Z,18.80
2022-09-30T16:12:08.796Z,18.80
2022-09-30T16:14:58.465Z,18.40
2022-09-30T16:17:29.585Z,18.20
2022-09-30T16:20:20.248Z,18.10
2022-09-30T16:22:46.797Z,18.20
2022-09-30T16:25:31.676Z,18.30
2022-09-30T16:28:12.689Z,18.40
2022-09-30T16:30:46.054Z,18.60
2022-09-30T16:33:15.203Z,18.70
2022-09-30T16:35:47.405Z,18.70
2022-09-30T16:38:16.336Z,18.70
2022-09-30T16:40:42.963Z,18.50
2022-09-30T16:43:11.558Z,18.40
2022-09-30T16:45:39.912Z,18.30
2022-09-30T16:48:14.965Z,18.30
2022-09-30T16:50:54.317Z,18.30
2022-09-30T16:53:21.864Z,18.30
2022-09-30T16:55:48.453Z,18.10
2022-09-30T16:58:15.256Z,18.00
2022-09-30T17:00:44.645Z,17.70
2022-09-30T17:03:16.063Z,17.60
2022-09-30T17:05:44.991Z,17.50
2022-09-30T17:08:13.970Z,17.40
2022-09-30T17:10:43.220Z,17.20
2022-09-30T17:13:10.111Z,17.00
2022-09-30T17:15:37.349Z,16.80
2022-09-30T17:18:07.291Z,16.60
2022-09-30T17:20:34.613Z,16.40
2022-09-30T17:23:06.266Z,16.30
2022-09-30T17:25:34.089Z,16.20
2022-09-30T17:28:01.025Z,16.20
2022-09-30T17:30:27.692Z,16.20
2022-09-30T17:32:54.468Z,16.20
2022-09-30T17:35:22.478Z,16.20
2022-09-30T17:37:49.615Z,16.20
2022-09-30T17:40:34.611Z,16.20
2022-09-30T17:43:07.419Z,16.10
2022-09-30T17:45:35.095Z,16.20
2022-09-30T17:48:01.894Z,16.20
2022-09-30T17:50:28.574Z,16.20
2022-09-30T17:52:55.892Z,16.10
2022-09-30T17:55:22.577Z,16.10
2022-09-30T17:57:50.025Z,16.10
2022-09-30T18:00:16.761Z,16.00
2022-09-30T18:02:44.606Z,16.00
2022-09-30T18:05:11.671Z,16.00
2022-09-30T18:07:38.373Z,15.80
2022-09-30T18:10:08.037Z,15.80
2022-09-30T18:12:34.936Z,15.70
2022-09-30T18:15:01.653Z,15.70
2022-09-30T18:17:28.506Z,15.60
2022-09-30T18:19:55.868Z,15.50
2022-09-30T18:22:22.595Z,15.40
2022-09-30T18:25:07.809Z,15.20
2022-09-30T18:27:34.660Z,15.10
2022-09-30T18:30:02.764Z,15.00
2022-09-30T18:32:30.042Z,14.90
2022-09-30T18:34:57.270Z,14.80
2022-09-30T18:37:24.893Z,14.80
2022-09-30T18:39:51.847Z,14.70
2022-09-30T18:42:20.015Z,14.80
2022-09-30T18:44:47.345Z,14.70
2022-09-30T18:47:14.440Z,14.60
2022-09-30T18:49:41.112Z,14.60
2022-09-30T18:52:08.537Z,14.50
2022-09-30T18:54:35.317Z,14.50
2022-09-30T18:57:02.006Z,14.40
2022-09-30T18:59:29.346Z,14.40
2022-09-30T19:01:58.133Z,14.40
2022-09-30T19:04:24.850Z,14.30
2022-09-30T19:06:51.656Z,14.30
2022-09-30T19:09:18.565Z,14.20
2022-09-30T19:11:46.191Z,14.20
2022-09-30T19:14:14.481Z,14.10
2022-09-30T19:16:41.960Z,14.10
2022-09-30T19:19:12.247Z,14.00
2022-09-30T19:21:39.876Z,13.90
2022-09-30T19:24:08.475Z,13.80
2022-09-30T19:26:37.573Z,13.70
2022-09-30T19:29:05.952Z,13.70
2022-09-30T19:31:35.832Z,13.60
2022-09-30T19:34:03.590Z,13.50
2022-09-30T19:36:37.668Z,13.50
2022-09-30T19:39:12.163Z,13.50
2022-09-30T19:41:39.353Z,13.50
2022-09-30T19:44:06.301Z,13.50
2022-09-30T19:46:33.507Z,13.50
2022-09-30T19:49:02.296Z,13.50
2022-09-30T19:51:30.712Z,13.50
2022-09-30T19:54:05.902Z,13.50
2022-09-30T19:56:34.716Z,13.40
2022-09-30T19:59:03.228Z,13.40
2022-09-30T20:01:31.245Z,13.40
2022-09-30T20:04:04.823Z,13.40
2022-09-30T20:06:36.449Z,13.40
2022-09-30T20:09:05.802Z,13.40
2022-09-30T20:11:35.994Z,13.30
2022-09-30T20:14:24.228Z,13.30
2022-09-30T20:16:51.565Z,13.30
2022-09-30T20:19:19.365Z,13.30
2022-09-30T20:21:47.442Z,13.10
2022-09-30T20:24:16.239Z,13.20
2022-09-30T20:26:44.496Z,13.20
2022-09-30T20:29:11.672Z,13.20
2022-09-30T20:31:41.200Z,13.20
2022-09-30T20:34:11.099Z,13.20
2022-09-30T20:36:38.828Z,13.20
2022-09-30T20:39:07.268Z,13.20
2022-09-30T20:41:36.771Z,13.10
2022-09-30T20:44:04.978Z,13.10
2022-09-30T20:46:34.372Z,13.10
2022-09-30T20:49:01.567Z,13.10
2022-09-30T20:51:30.932Z,13.00
2022-09-30T20:53:59.217Z,13.00
2022-09-30T20:56:39.030Z,13.00
2022-09-30T20:59:15.429Z,12.90
2022-09-30T21:01:42.575Z,12.90
2022-09-30T21:04:09.295Z,12.90
2022-09-30T21:06:35.937Z,12.90
2022-09-30T21:09:03.637Z,12.80
2022-09-30T21:11:30.580Z,12.80
2022-09-30T21:13:58.095Z,12.80
2022-09-30T21:16:25.499Z,12.90
2022-09-30T21:18:53.676Z,12.70
2022-09-30T21:21:22.815Z,12.70
2022-09-30T21:23:57.651Z,12.70
2022-09-30T21:26:25.211Z,12.70
2022-09-30T21:28:52.480Z,12.70
2022-09-30T21:31:27.718Z,12.70
2022-09-30T21:33:59.229Z,12.70
2022-09-30T21:36:27.288Z,12.60
2022-09-30T21:38:54.810Z,12.60
2022-09-30T21:41:22.544Z,12.60
2022-09-30T21:43:49.453Z,12.60
2022-09-30T21:46:16.385Z,12.60
2022-09-30T21:48:43.423Z,12.50
2022-09-30T21:51:13.382Z,12.50
2022-09-30T21:53:41.152Z,12.50
2022-09-30T21:56:11.356Z,12.50
2022-09-30T21:58:38.129Z,12.50
2022-09-30T22:01:06.381Z,12.40
2022-09-30T22:03:37.834Z,12.30
2022-09-30T22:06:08.107Z,12.30
2022-09-30T22:08:42.369Z,12.30
2022-09-30T22:11:12.079Z,12.20
2022-09-30T22:13:41.817Z,12.10
2022-09-30T22:16:08.709Z,12.00
2022-09-30T22:18:36.157Z,12.00
2022-09-30T22:21:13.971Z,12.00
2022-09-30T22:23:40.968Z,12.00
2022-09-30T22:26:10.488Z,12.00
2022-09-30T22:28:39.357Z,12.00
2022-09-30T22:31:19.385Z,12.00
2022-09-30T22:34:13.245Z,12.00
2022-09-30T22:36:58.751Z,12.00
2022-09-30T22:39:25.966Z,12.00
2022-09-30T22:41:54.130Z,12.00
2022-09-30T22:44:25.360Z,12.00
2022-09-30T22:46:54.053Z,12.00
2022-09-30T22:49:24.304Z,11.90
2022-09-30T22:51:57.462Z,11.90
2022-09-30T22:54:26.975Z,11.90
2022-09-30T22:56:56.894Z,11.90
2022-09-30T22:59:25.573Z,11.90
2022-09-30T23:01:52.727Z,11.90
2022-09-30T23:04:19.522Z,11.90
2022-09-30T23:06:51.104Z,12.00
2022-09-30T23:09:19.382Z,11.90
2022-09-30T23:11:46.575Z,11.80
2022-09-30T23:14:13.843Z,11.80
2022-09-30T23:16:41.166Z,11.80
2022-09-30T23:19:07.900Z,11.80
2022-09-30T23:21:34.846Z,11.80
2022-09-30T23:24:02.026Z,11.80
2022-09-30T23:26:29.806Z,11.80
2022-09-30T23:29:08.138Z,11.70
2022-09-30T23:31:35.131Z,11.70
2022-09-30T23:34:03.318Z,11.70
2022-09-30T23:36:36.285Z,11.70
2022-09-30T23:39:12.286Z,11.70
2022-09-30T23:41:39.430Z,11.70
2022-09-30T23:44:06.693Z,11.70
2022-09-30T23:46:33.280Z,11.70
2022-09-30T23:48:59.936Z,11.70
2022-09-30T23:51:26.599Z,11.70
2022-09-30T23:53:53.370Z,11.60
2022-09-30T23:56:20.649Z,11.60
2022-09-30T23:58:47.503Z,11.60
